createdAt,value
2022-08-21T00:04:57.110Z,7.37
2022-08-21T00:09:58.765Z,8.43
2022-08-21T00:15:02.259Z,13.23
2022-08-21T00:20:09.149Z,4.87
2022-08-21T00:25:12.241Z,7.28
2022-08-21T00:30:22.748Z,13.98
2022-08-21T00:35:28.493Z,6.40
2022-08-21T00:40:37.423Z,6.65
2022-08-21T00:45:38.277Z,5.97
2022-08-21T00:50:51.613Z,6.75
2022-08-21T00:55:53.028Z,10.43
2022-08-21T01:00:59.926Z,6.37
2022-08-21T01:06:05.147Z,11.12
2022-08-21T01:11:06.479Z,9.73
2022-08-21T01:16:09.726Z,5.82
2022-08-21T01:21:14.756Z,8.65
2022-08-21T01:26:20.706Z,8.23
2022-08-21T01:31:24.808Z,9.70
2022-08-21T01:36:27.970Z,11.07
2022-08-21T01:41:32.226Z,8.02
2022-08-21T01:46:39.470Z,9.95
2022-08-21T01:51:40.485Z,12.80
2022-08-21T01:56:48.098Z,10.15
2022-08-21T02:01:54.283Z,13.65
2022-08-21T02:07:02.176Z,9.45
2022-08-21T02:12:03.603Z,7.45
2022-08-21T02:17:09.335Z,8.20
2022-08-21T02:22:11.229Z,8.05
2022-08-21T02:27:12.027Z,9.32
2022-08-21T02:32:15.838Z,7.78
2022-08-21T02:37:16.984Z,11.55
2022-08-21T02:42:18.510Z,7.78
2022-08-21T02:47:19.402Z,8.73
2022-08-21T02:52:21.965Z,10.77
2022-08-21T02:57:25.749Z,9.90
2022-08-21T03:02:26.794Z,12.23
2022-08-21T03:07:30.805Z,11.05
2022-08-21T03:12:31.989Z,7.18
2022-08-21T03:17:34.175Z,9.68
2022-08-21T03:22:35.527Z,7.07
2022-08-21T03:27:36.757Z,9.88
2022-08-21T03:32:41.497Z,12.30
2022-08-21T03:37:42.391Z,12.32
2022-08-21T03:42:45.595Z,11.40
2022-08-21T03:48:07.548Z,9.15
2022-08-21T03:53:17.014Z,10.18
2022-08-21T03:58:27.720Z,13.85
2022-08-21T04:03:33.054Z,14.87
2022-08-21T04:08:34.984Z,14.33
2022-08-21T04:13:43.228Z,8.82
2022-08-21T04:18:45.637Z,15.10
2022-08-21T04:23:46.825Z,16.50
2022-08-21T04:28:47.959Z,15.88
2022-08-21T04:33:57.169Z,14.77
2022-08-21T04:39:03.910Z,11.48
2022-08-21T04:44:10.158Z,15.15
2022-08-21T04:49:12.077Z,9.63
2022-08-21T04:54:22.062Z,10.15
2022-08-21T04:59:26.303Z,15.27
2022-08-21T05:04:33.640Z,16.60
2022-08-21T05:09:35.607Z,14.93
2022-08-21T05:14:36.676Z,11.10
2022-08-21T05:19:38.301Z,14.35
2022-08-21T05:24:39.759Z,13.38
2022-08-21T05:29:46.520Z,11.77
2022-08-21T05:34:56.491Z,9.68
2022-08-21T05:40:12.774Z,12.23
2022-08-21T05:45:31.622Z,23.27
2022-08-21T05:50:47.073Z,13.62
2022-08-21T05:55:51.314Z,10.02
2022-08-21T06:00:54.940Z,8.95
2022-08-21T06:05:59.724Z,14.95
2022-08-21T06:11:03.739Z,11.77
2022-08-21T06:16:16.454Z,14.00
2022-08-21T06:21:18.529Z,17.02
2022-08-21T06:26:21.020Z,12.33
2022-08-21T06:31:24.407Z,9.38
2022-08-21T06:36:25.286Z,10.30
2022-08-21T06:41:30.364Z,9.60
2022-08-21T06:46:40.293Z,9.52
2022-08-21T06:51:41.341Z,9.05
2022-08-21T06:56:42.426Z,8.57
2022-08-21T07:01:44.683Z,13.38
2022-08-21T07:06:46.139Z,12.07
2022-08-21T07:11:52.326Z,12.52
2022-08-21T07:16:56.496Z,13.55
2022-08-21T07:22:00.327Z,12.35
2022-08-21T07:27:09.424Z,15.80
2022-08-21T07:32:11.227Z,19.37
2022-08-21T07:37:12.052Z,9.10
2022-08-21T07:42:13.678Z,14.52
2022-08-21T07:47:29.549Z,11.70
2022-08-21T07:52:44.519Z,9.60
2022-08-21T07:57:46.987Z,11.67
2022-08-21T08:02:52.784Z,9.35
2022-08-21T08:07:57.123Z,15.43
2022-08-21T08:12:58.891Z,11.23
2022-08-21T08:18:00.954Z,8.52
2022-08-21T08:23:02.211Z,9.87
2022-08-21T08:28:07.333Z,8.25
2022-08-21T08:33:18.787Z,12.27
2022-08-21T08:38:24.600Z,10.77
2022-08-21T08:43:28.089Z,12.60
2022-08-21T08:49:02.868Z,13.65
2022-08-21T08:54:13.476Z,8.20
2022-08-21T08:59:40.317Z,11.02
2022-08-21T09:04:44.468Z,8.05
2022-08-21T09:10:13.041Z,12.18
2022-08-21T09:15:32.256Z,8.65
2022-08-21T09:27:27.000Z,8.85
2022-08-21T09:32:37.757Z,7.78
2022-08-21T09:37:58.455Z,7.20
2022-08-21T09:43:20.372Z,8.18
2022-08-21T09:48:27.003Z,11.57
2022-08-21T09:53:35.465Z,11.57
2022-08-21T09:58:39.431Z,8.95
2022-08-21T10:03:40.472Z,7.18
2022-08-21T10:08:41.659Z,8.20
2022-08-21T10:17:04.906Z,9.27
2022-08-21T10:22:33.047Z,7.67
2022-08-21T10:28:11.452Z,7.40
2022-08-21T10:33:31.945Z,6.18
2022-08-21T10:39:35.890Z,9.57
2022-08-21T10:45:10.080Z,8.77
2022-08-21T10:51:29.102Z,6.97
2022-08-21T10:56:36.047Z,9.95
2022-08-21T11:01:53.397Z,4.45
2022-08-21T11:07:03.795Z,9.30
2022-08-21T11:12:51.560Z,9.50
2022-08-21T11:26:02.935Z,5.28
2022-08-21T11:32:56.292Z,6.37
2022-08-21T11:45:12.863Z,8.32
2022-08-21T11:50:34.210Z,7.78
2022-08-21T11:55:49.806Z,7.05
2022-08-21T12:00:56.841Z,8.48
2022-08-21T12:06:05.834Z,6.25
2022-08-21T12:11:31.032Z,6.00
2022-08-21T12:16:44.187Z,7.22
2022-08-21T12:22:09.199Z,7.50
2022-08-21T12:27:41.763Z,6.93
2022-08-21T12:32:58.822Z,5.60
2022-08-21T12:39:54.902Z,7.25
2022-08-21T12:45:02.689Z,7.05
2022-08-21T12:50:15.221Z,5.57
2022-08-21T12:55:27.522Z,4.37
2022-08-21T13:05:37.572Z,5.13
2022-08-21T13:10:40.971Z,5.12
2022-08-21T13:15:47.588Z,4.72
2022-08-21T13:20:49.731Z,4.18
2022-08-21T13:25:50.812Z,6.20
2022-08-21T13:30:54.689Z,5.62
2022-08-21T13:36:16.983Z,5.55
2022-08-21T13:41:25.977Z,6.07
2022-08-21T13:46:31.457Z,6.37
2022-08-21T13:51:33.533Z,4.60
2022-08-21T13:56:46.630Z,4.32
2022-08-21T14:01:59.036Z,5.05
2022-08-21T14:07:01.133Z,3.87
2022-08-21T14:17:37.332Z,4.12
2022-08-21T14:22:48.981Z,4.03
2022-08-21T14:27:59.248Z,4.93
2022-08-21T14:33:01.980Z,6.37
2022-08-21T14:38:11.216Z,3.80
2022-08-21T14:43:12.218Z,6.90
2022-08-21T14:48:13.935Z,3.78
2022-08-21T14:53:15.299Z,5.12
2022-08-21T14:58:16.628Z,7.85
2022-08-21T15:03:18.060Z,6.17
2022-08-21T15:08:19.206Z,4.80
2022-08-21T15:13:21.066Z,4.15
2022-08-21T15:18:27.326Z,6.62
2022-08-21T15:23:28.223Z,5.70
2022-08-21T15:28:31.707Z,4.90
2022-08-21T15:33:32.994Z,5.60
2022-08-21T15:38:33.933Z,3.58
2022-08-21T15:43:53.263Z,4.03
2022-08-21T15:48:57.916Z,4.25
2022-08-21T15:54:01.161Z,4.12
2022-08-21T15:59:13.941Z,7.20
2022-08-21T16:04:21.571Z,3.17
2022-08-21T16:09:23.178Z,11.02
2022-08-21T16:14:24.353Z,4.33
2022-08-21T16:19:28.773Z,5.18
2022-08-21T16:24:29.661Z,3.62
2022-08-21T16:29:35.178Z,7.37
2022-08-21T16:34:39.609Z,4.70
2022-08-21T16:39:40.573Z,3.10
2022-08-21T16:44:42.259Z,4.90
2022-08-21T16:49:50.529Z,6.25
2022-08-21T16:54:51.397Z,3.30
2022-08-21T16:59:52.948Z,4.75
2022-08-21T17:04:53.941Z,2.23
2022-08-21T17:09:55.687Z,4.95
2022-08-21T17:15:04.435Z,2.55
2022-08-21T17:20:06.956Z,3.60
2022-08-21T17:25:08.859Z,4.37
2022-08-21T17:30:12.007Z,4.30
2022-08-21T17:35:13.979Z,3.62
2022-08-21T17:40:15.827Z,3.35
2022-08-21T17:45:19.266Z,5.53
2022-08-21T17:50:22.825Z,4.40
2022-08-21T17:55:24.347Z,6.37
2022-08-21T18:00:25.919Z,4.97
2022-08-21T18:05:28.071Z,4.40
2022-08-21T18:10:29.019Z,9.40
2022-08-21T18:15:29.963Z,3.53
2022-08-21T18:20:31.565Z,4.80
2022-08-21T18:25:33.112Z,4.43
2022-08-21T18:30:39.413Z,5.40
2022-08-21T18:35:41.508Z,3.87
2022-08-21T18:40:53.777Z,3.33
2022-08-21T18:45:57.136Z,3.65
2022-08-21T18:50:57.995Z,4.07
